Time,TemperatureF,DewpointF,PressureIn,WindDirection,WindDirectionDegrees,WindSpeedMPH,WindSpeedGustMPH,Humidity,HourlyPrecipIn,Conditions,Clouds,dailyrainin,SoftwareType,DateUTC
2013-02-01 00:00:00,31.0,12.0,-100.00,WSW,251,13.0,18.0,44,0.00,,,0.03,,2013-02-01 07:00:00,
2013-02-01 00:32:00,31.0,12.0,-100.00,WSW,251,13.0,18.0,44,0.00,,,0.03,,2013-02-01 07:32:00,
2013-02-01 00:41:00,31.0,12.0,-100.00,WSW,251,13.0,18.0,44,0.00,,,0.03,,2013-02-01 07:41:00,
2013-02-01 00:52:00,31.0,12.0,-100.00,WSW,251,13.0,18.0,44,0.00,,,0.03,,2013-02-01 07:52:00,
2013-02-01 01:00:00,30.0,15.0,-100.00,WSW,256,11.0,17.0,52,0.00,,,0.03,,2013-02-01 08:00:00,
2013-02-01 01:42:00,30.0,15.0,-100.00,WSW,256,11.0,17.0,52,0.00,,,0.03,,2013-02-01 08:42:00,
2013-02-01 01:52:00,30.0,15.0,-100.00,WSW,256,11.0,17.0,52,0.00,,,0.03,,2013-02-01 08:52:00,
2013-02-01 02:00:00,30.0,16.0,-100.00,WSW,244,10.0,13.0,55,0.00,,,0.03,,2013-02-01 09:00:00,
2013-02-01 02:32:00,30.0,16.0,-100.00,WSW,244,10.0,13.0,55,0.00,,,0.03,,2013-02-01 09:32:00,
2013-02-01 02:41:00,30.0,16.0,-100.00,WSW,244,10.0,13.0,55,0.00,,,0.03,,2013-02-01 09:41:00,
2013-02-01 02:52:00,30.0,16.0,-100.00,WSW,244,10.0,13.0,55,0.00,,,0.03,,2013-02-01 09:52:00,
2013-02-01 03:00:00,29.0,17.0,-100.00,West,259,7.0,8.0,59,0.00,,,0.03,,2013-02-01 10:00:00,
2013-02-01 03:42:00,29.0,17.0,-100.00,West,259,7.0,8.0,59,0.00,,,0.03,,2013-02-01 10:42:00,
2013-02-01 03:53:00,29.0,17.0,-100.00,West,259,7.0,8.0,59,0.00,,,0.03,,2013-02-01 10:53:00,
2013-02-01 04:00:00,29.0,15.0,-100.00,WSW,248,8.0,10.0,54,0.00,,,0.02,,2013-02-01 11:00:00,
2013-02-01 04:32:00,29.0,15.0,-100.00,WSW,248,8.0,10.0,54,0.00,,,0.02,,2013-02-01 11:32:00,
2013-02-01 04:41:00,29.0,15.0,-100.00,WSW,248,8.0,10.0,54,0.00,,,0.02,,2013-02-01 11:41:00,
2013-02-01 04:53:00,29.0,15.0,-100.00,WSW,248,8.0,10.0,54,0.00,,,0.02,,2013-02-01 11:53:00,
2013-02-01 05:00:00,29.0,14.0,-100.00,WSW,249,3.0,5.0,51,-99.99,,,0.02,,2013-02-01 12:00:00,
2013-02-01 05:32:00,29.0,14.0,-100.00,WSW,249,3.0,5.0,51,-99.99,,,0.02,,2013-02-01 12:32:00,
2013-02-01 05:42:00,29.0,14.0,-100.00,WSW,249,3.0,5.0,51,-99.99,,,0.02,,2013-02-01 12:42:00,
2013-02-01 05:52:00,29.0,14.0,-100.00,WSW,249,3.0,5.0,51,-99.99,,,0.02,,2013-02-01 12:52:00,
2013-02-01 06:00:00,29.0,14.0,-100.00,West,274,8.0,10.0,53,0.00,,,0.01,,2013-02-01 13:00:00,
2013-02-01 06:42:00,29.0,14.0,-100.00,West,274,8.0,10.0,53,0.00,,,0.01,,2013-02-01 13:42:00,
2013-02-01 06:53:00,29.0,14.0,-100.00,West,274,8.0,10.0,53,0.00,,,0.01,,2013-02-01 13:53:00,
2013-02-01 07:00:00,27.0,12.0,-100.00,WSW,237,7.0,8.0,53,0.00,,,0.01,,2013-02-01 14:00:00,
2013-02-01 07:32:00,27.0,12.0,-100.00,WSW,237,7.0,8.0,53,0.00,,,0.01,,2013-02-01 14:32:00,
2013-02-01 07:42:00,27.0,12.0,-100.00,WSW,237,7.0,8.0,53,0.00,,,0.01,,2013-02-01 14:42:00,
2013-02-01 07:52:00,27.0,12.0,-100.00,WSW,237,7.0,8.0,53,0.00,,,0.01,,2013-02-01 14:52:00,
2013-02-01 08:00:00,28.0,11.0,-100.00,SW,232,7.0,9.0,49,0.00,,,0.01,,2013-02-01 15:00:00,
2013-02-01 08:42:00,28.0,11.0,-100.00,SW,232,7.0,9.0,49,0.00,,,0.01,,2013-02-01 15:42:00,
2013-02-01 08:52:00,28.0,11.0,-100.00,SW,232,7.0,9.0,49,0.00,,,0.01,,2013-02-01 15:52:00,
2013-02-01 09:00:00,32.0,15.0,-100.00,WSW,237,8.0,12.0,48,0.01,,,0.02,,2013-02-01 16:00:00,
2013-02-01 09:33:00,32.0,15.0,-100.00,WSW,237,8.0,12.0,48,0.01,,,0.02,,2013-02-01 16:33:00,
2013-02-01 09:42:00,32.0,15.0,-100.00,WSW,237,8.0,12.0,48,0.01,,,0.02,,2013-02-01 16:42:00,
2013-02-01 09:52:00,32.0,15.0,-100.00,WSW,237,8.0,12.0,48,0.01,,,0.02,,2013-02-01 16:52:00,
2013-02-01 10:00:00,36.0,14.0,-100.00,SW,226,18.0,28.0,41,0.00,,,0.02,,2013-02-01 17:00:00,
2013-02-01 10:42:00,36.0,14.0,-100.00,SW,226,18.0,28.0,41,0.00,,,0.02,,2013-02-01 17:42:00,
2013-02-01 10:53:00,36.0,14.0,-100.00,SW,226,18.0,28.0,41,0.00,,,0.02,,2013-02-01 17:53:00,
2013-02-01 11:00:00,37.0,15.0,-100.00,SW,230,16.0,23.0,39,0.00,,,0.02,,2013-02-01 18:00:00,
2013-02-01 11:32:00,37.0,15.0,-100.00,SW,230,16.0,23.0,39,0.00,,,0.02,,2013-02-01 18:32:00,
2013-02-01 11:42:00,37.0,15.0,-100.00,SW,230,16.0,23.0,39,0.00,,,0.02,,2013-02-01 18:42:00,
2013-02-01 11:53:00,37.0,15.0,-100.00,SW,230,16.0,23.0,39,0.00,,,0.02,,2013-02-01 18:53:00,
2013-02-01 12:00:00,36.0,19.0,-100.00,SW,221,13.0,18.0,50,0.01,,,0.03,,2013-02-01 19:00:00,
2013-02-01 12:41:00,36.0,19.0,-100.00,SW,221,13.0,18.0,50,0.01,,,0.03,,2013-02-01 19:41:00,
2013-02-01 12:52:00,36.0,19.0,-100.00,SW,221,13.0,18.0,50,0.01,,,0.03,,2013-02-01 19:52:00,
2013-02-01 14:00:00,38.0,14.0,-100.00,South,170,2.0,4.0,36,0.00,,,0.02,,2013-02-01 21:00:00,
2013-02-01 14:31:00,38.0,14.0,-100.00,South,170,2.0,4.0,36,0.00,,,0.02,,2013-02-01 21:31:00,
2013-02-01 14:41:00,38.0,14.0,-100.00,South,170,2.0,4.0,36,0.00,,,0.02,,2013-02-01 21:41:00,
2013-02-01 14:52:00,38.0,14.0,-100.00,South,170,2.0,4.0,36,0.00,,,0.02,,2013-02-01 21:52:00,
2013-02-01 15:00:00,36.0,13.0,-100.00,East,92,5.0,9.0,37,0.00,,,0.01,,2013-02-01 22:00:00,
2013-02-01 15:42:00,36.0,13.0,-100.00,East,92,5.0,9.0,37,0.00,,,0.01,,2013-02-01 22:42:00,
2013-02-01 15:52:00,36.0,13.0,-100.00,East,92,5.0,9.0,37,0.00,,,0.01,,2013-02-01 22:52:00,
2013-02-01 17:00:00,31.0,12.0,-100.00,West,275,4.0,4.0,44,0.00,,,0.01,,2013-02-02 00:00:00,
2013-02-01 17:32:00,31.0,12.0,-100.00,West,275,4.0,4.0,44,0.00,,,0.01,,2013-02-02 00:32:00,
2013-02-01 17:41:00,31.0,12.0,-100.00,West,275,4.0,4.0,44,0.00,,,0.01,,2013-02-02 00:41:00,
2013-02-01 17:52:00,31.0,12.0,-100.00,West,275,4.0,4.0,44,0.00,,,0.01,,2013-02-02 00:52:00,
2013-02-01 18:00:00,27.0,12.0,-100.00,WSW,244,4.0,5.0,52,0.00,,,0.01,,2013-02-02 01:00:00,
2013-02-01 18:41:00,27.0,12.0,-100.00,WSW,244,4.0,5.0,52,0.00,,,0.01,,2013-02-02 01:41:00,
2013-02-01 18:52:00,27.0,12.0,-100.00,WSW,244,4.0,5.0,52,0.00,,,0.01,,2013-02-02 01:52:00,
2013-02-01 19:00:00,28.0,10.0,-100.00,WSW,254,3.0,5.0,45,0.00,,,0.02,,2013-02-02 02:00:00,
2013-02-01 19:41:00,28.0,10.0,-100.00,WSW,254,3.0,5.0,45,0.00,,,0.02,,2013-02-02 02:41:00,
2013-02-01 19:52:00,28.0,10.0,-100.00,WSW,254,3.0,5.0,45,0.00,,,0.02,,2013-02-02 02:52:00,
2013-02-01 20:00:00,26.0,9.0,-100.00,West,278,3.0,4.0,47,0.00,,,0.02,,2013-02-02 03:00:00,
2013-02-01 20:42:00,26.0,9.0,-100.00,West,278,3.0,4.0,47,0.00,,,0.02,,2013-02-02 03:42:00,
2013-02-01 20:52:00,26.0,9.0,-100.00,West,278,3.0,4.0,47,0.00,,,0.02,,2013-02-02 03:52:00,
2013-02-01 21:00:00,27.0,7.0,-100.00,North,359,1.0,4.0,42,0.00,,,0.02,,2013-02-02 04:00:00,
2013-02-01 21:32:00,27.0,7.0,-100.00,North,359,1.0,4.0,42,0.00,,,0.02,,2013-02-02 04:32:00,
2013-02-01 21:41:00,27.0,7.0,-100.00,North,359,1.0,4.0,42,0.00,,,0.02,,2013-02-02 04:41:00,
2013-02-01 21:52:00,27.0,7.0,-100.00,North,359,1.0,4.0,42,0.00,,,0.02,,2013-02-02 04:52:00,
2013-02-01 22:00:00,25.0,5.0,-100.00,West,266,11.0,15.0,42,0.00,,,0.02,,2013-02-02 05:00:00,
2013-02-01 22:33:00,25.0,5.0,-100.00,West,266,11.0,15.0,42,0.00,,,0.02,,2013-02-02 05:33:00,
2013-02-01 22:41:00,25.0,5.0,-100.00,West,266,11.0,15.0,42,0.00,,,0.02,,2013-02-02 05:41:00,
2013-02-01 22:52:00,25.0,5.0,-100.00,West,266,11.0,15.0,42,0.00,,,0.02,,2013-02-02 05:52:00,
2013-02-01 23:00:00,24.0,2.0,-100.00,West,270,10.0,14.0,39,0.00,,,0.01,,2013-02-02 06:00:00,
2013-02-01 23:31:00,24.0,2.0,-100.00,West,270,10.0,14.0,39,0.00,,,0.01,,2013-02-02 06:31:00,
2013-02-01 23:41:00,24.0,2.0,-100.00,West,270,10.0,14.0,39,0.00,,,0.01,,2013-02-02 06:41:00,
2013-02-01 23:52:00,24.0,2.0,-100.00,West,270,10.0,14.0,39,0.00,,,0.01,,2013-02-02 06:52:00,